Time;durP1;ratioP1;P1;durP2;ratioP2;P2;SDS_P1;SDS_P2;PMS_P1;PMS_P2;Temp;Humidity;BMP_temperature;BMP_pressure;BME280_temperature;BME280_humidity;BME280_pressure;Samples;Min_cycle;Max_cycle;Signal;HPM_P1;HPM_P2
2023/06/14 00:01:52;;;;;;;4.30;2.75;;;;;;;20.06;37.70;99957.94;10221385;28;20062;-60
2023/06/14 00:06:56;;;;;;;3.67;3.00;;;;;;;19.95;38.13;99959.69;10224898;28;20333;-60
2023/06/14 00:11:58;;;;;;;3.15;2.80;;;;;;;19.85;38.32;99968.50;10214312;28;20093;-60
2023/06/14 00:16:59;;;;;;;5.28;2.80;;;;;;;19.77;38.49;99969.75;10218405;28;20055;-61
2023/06/14 00:22:01;;;;;;;7.47;3.13;;;;;;;19.65;38.77;99958.03;10220411;28;20071;-59
2023/06/14 00:27:03;;;;;;;7.60;3.70;;;;;;;19.58;38.88;99963.63;10220623;28;20053;-59
2023/06/14 00:32:05;;;;;;;4.57;2.67;;;;;;;19.51;39.27;99962.97;10220382;28;20053;-59
2023/06/14 00:37:06;;;;;;;4.97;2.67;;;;;;;19.39;39.64;99960.31;10218999;28;20094;-59
2023/06/14 00:42:08;;;;;;;3.95;2.50;;;;;;;19.25;40.26;99963.56;10223294;28;20051;-60
2023/06/14 00:47:09;;;;;;;3.35;2.47;;;;;;;19.17;40.29;99964.75;10220512;28;20059;-60
2023/06/14 00:52:12;;;;;;;4.55;2.70;;;;;;;19.07;40.39;99961.84;10227429;28;20058;-59
2023/06/14 00:57:13;;;;;;;2.45;2.25;;;;;;;19.03;40.60;99964.22;10229800;28;20055;-59
2023/06/14 01:02:15;;;;;;;3.03;2.47;;;;;;;19.01;40.61;99961.72;10226983;28;20699;-60
2023/06/14 01:07:54;;;;;;;4.18;2.78;;;;;;;19.00;40.73;99965.53;10228114;28;20513;-60
2023/06/14 01:13:02;;;;;;;6.25;3.13;;;;;;;18.97;40.76;99970.63;10227236;28;20051;-59
2023/06/14 01:18:04;;;;;;;4.35;2.80;;;;;;;18.94;40.80;99973.84;10218874;28;20054;-59
2023/06/14 01:23:06;;;;;;;6.07;2.63;;;;;;;18.90;40.58;99969.94;10221465;28;20067;-58
2023/06/14 01:28:10;;;;;;;4.80;2.65;;;;;;;18.83;40.87;99973.59;10203273;28;20079;-59
2023/06/14 01:33:14;;;;;;;3.25;1.95;;;;;;;18.83;40.89;99979.06;10223263;28;20051;-59
2023/06/14 01:38:19;;;;;;;3.95;2.03;;;;;;;18.79;40.84;99979.75;10220501;28;20510;-59
2023/06/14 01:43:21;;;;;;;4.07;2.80;;;;;;;18.74;40.85;99972.31;10222373;28;20051;-59
2023/06/14 01:48:23;;;;;;;3.75;2.20;;;;;;;18.69;41.09;99968.66;10222424;28;20056;-59
2023/06/14 01:53:24;;;;;;;4.07;2.42;;;;;;;18.58;41.27;99967.56;10225586;28;20049;-60
2023/06/14 01:58:26;;;;;;;8.95;2.50;;;;;;;18.53;41.23;99967.47;10222375;28;20050;-59
2023/06/14 02:03:28;;;;;;;2.90;2.00;;;;;;;18.42;41.50;99964.53;10217643;28;20059;-59
2023/06/14 02:08:29;;;;;;;4.53;2.40;;;;;;;18.42;41.57;99963.69;10221358;28;20135;-60
2023/06/14 02:13:31;;;;;;;4.22;2.10;;;;;;;18.38;41.78;99965.22;10222348;28;20380;-59
2023/06/14 02:18:33;;;;;;;3.33;2.35;;;;;;;18.28;41.92;99968.53;10221137;28;20454;-59
2023/06/14 02:23:35;;;;;;;4.22;2.92;;;;;;;18.20;42.17;99972.44;10221464;28;20058;-59
2023/06/14 02:28:36;;;;;;;3.90;2.75;;;;;;;18.13;42.16;99973.63;10218754;28;20382;-59
2023/06/14 02:33:38;;;;;;;5.65;2.72;;;;;;;18.11;42.24;99973.88;10224174;28;20043;-60
2023/06/14 02:38:39;;;;;;;4.10;2.22;;;;;;;18.01;42.47;99982.59;10220636;28;20067;-60
2023/06/14 02:43:41;;;;;;;4.40;2.53;;;;;;;17.91;42.82;99987.78;10226157;28;20401;-59
2023/06/14 02:48:42;;;;;;;3.75;2.53;;;;;;;17.81;43.16;99996.47;10219839;28;20725;-58
2023/06/14 02:53:44;;;;;;;10.20;3.67;;;;;;;17.76;43.76;99998.25;10216343;28;20082;-59
2023/06/14 02:58:46;;;;;;;8.32;2.75;;;;;;;17.66;43.94;100001.50;10224627;28;20054;-60
2023/06/14 03:03:47;;;;;;;6.72;2.20;;;;;;;17.61;44.12;100004.94;10202713;28;20051;-59
2023/06/14 03:08:49;;;;;;;4.72;2.35;;;;;;;17.56;44.57;100003.97;10220242;28;20054;-58
2023/06/14 03:13:51;;;;;;;3.13;2.80;;;;;;;17.53;44.10;100005.22;10222155;28;20091;-60
2023/06/14 03:18:53;;;;;;;5.63;2.33;;;;;;;17.53;44.10;100013.38;10217376;28;20703;-60
2023/06/14 03:23:55;;;;;;;5.85;2.15;;;;;;;17.54;44.11;100015.06;10220471;28;20062;-61
2023/06/14 03:28:56;;;;;;;4.97;2.45;;;;;;;17.54;43.94;100027.81;10223243;28;20043;-61
2023/06/14 03:33:58;;;;;;;5.78;2.15;;;;;;;17.42;44.00;100022.34;10224450;28;20055;-60
2023/06/14 03:39:00;;;;;;;3.20;1.95;;;;;;;17.41;43.97;100031.53;10226509;28;20058;-60
2023/06/14 03:44:01;;;;;;;3.22;2.17;;;;;;;17.39;43.83;100030.94;10225149;28;20040;-60
2023/06/14 03:49:03;;;;;;;7.97;1.90;;;;;;;17.44;43.77;100045.50;10225304;28;20040;-61
2023/06/14 03:54:06;;;;;;;3.40;1.90;;;;;;;17.55;43.82;100049.31;10220093;28;20346;-59
2023/06/14 03:59:27;;;;;;;6.13;2.00;;;;;;;17.65;43.57;100056.94;10225566;28;20192;-59
2023/06/14 04:04:29;;;;;;;4.07;1.80;;;;;;;17.73;43.78;100056.63;10225386;28;20062;-60
2023/06/14 04:09:30;;;;;;;5.80;2.30;;;;;;;17.77;43.75;100062.41;10220371;28;20051;-61
2023/06/14 04:14:32;;;;;;;5.00;2.22;;;;;;;17.83;43.47;100058.75;10220823;28;20043;-60
2023/06/14 04:19:34;;;;;;;6.70;2.00;;;;;;;17.92;43.56;100070.19;10226104;28;20404;-63
2023/06/14 04:24:36;;;;;;;9.60;2.10;;;;;;;17.98;44.03;100077.44;10228242;28;20036;-60
2023/06/14 04:29:38;;;;;;;5.57;2.45;;;;;;;18.10;43.90;100080.19;10232903;28;20055;-62
2023/06/14 04:34:41;;;;;;;5.28;2.28;;;;;;;18.22;43.59;100079.13;10231474;28;20137;-59
2023/06/14 04:39:42;;;;;;;2.15;1.65;;;;;;;18.33;43.73;100076.69;10232042;28;20054;-58
2023/06/14 04:44:44;;;;;;;5.40;2.17;;;;;;;18.32;43.66;100081.28;10231489;28;20054;-63
2023/06/14 04:49:46;;;;;;;4.20;1.95;;;;;;;18.39;43.37;100087.47;10221930;28;20035;-60
2023/06/14 04:54:48;;;;;;;7.85;1.60;;;;;;;18.55;43.37;100094.13;10224450;28;20074;-59
2023/06/14 04:59:54;;;;;;;4.80;1.40;;;;;;;18.61;43.52;100101.34;10225447;28;20055;-58
2023/06/14 05:04:57;;;;;;;1.48;1.38;;;;;;;18.73;43.40;100095.09;10221872;28;20478;-59
2023/06/14 05:09:58;;;;;;;9.77;2.03;;;;;;;18.79;43.15;100108.59;10224332;28;20055;-59
2023/06/14 05:14:59;;;;;;;2.97;1.58;;;;;;;18.86;43.03;100104.94;10231988;28;20052;-61
2023/06/14 05:20:01;;;;;;;2.85;1.80;;;;;;;18.91;43.26;100105.06;10223078;28;20055;-58
2023/06/14 05:25:03;;;;;;;4.35;1.88;;;;;;;18.92;43.14;100107.56;10225531;28;20060;-60
2023/06/14 05:30:04;;;;;;;2.15;1.83;;;;;;;19.06;43.05;100101.88;10212324;28;20044;-60
2023/06/14 05:35:06;;;;;;;6.78;2.28;;;;;;;19.16;42.72;100110.25;10226433;28;20142;-58
2023/06/14 05:40:08;;;;;;;3.95;1.83;;;;;;;19.29;42.79;100122.78;10228759;28;20055;-59
2023/06/14 05:45:10;;;;;;;7.15;2.13;;;;;;;19.38;42.50;100126.81;10224188;28;20050;-62
2023/06/14 05:50:11;;;;;;;2.90;1.63;;;;;;;19.49;42.55;100125.97;10228130;28;20078;-60
2023/06/14 05:55:13;;;;;;;6.10;1.63;;;;;;;19.56;42.42;100128.56;10227869;28;20055;-62
2023/06/14 06:00:15;;;;;;;4.25;1.60;;;;;;;19.59;42.38;100128.91;10223600;28;20051;-62
2023/06/14 06:05:17;;;;;;;3.97;1.75;;;;;;;19.66;42.35;100136.13;10222756;28;20047;-63
2023/06/14 06:10:19;;;;;;;1.85;1.20;;;;;;;19.76;42.14;100139.09;10220740;28;20400;-60
2023/06/14 06:15:20;;;;;;;4.40;1.70;;;;;;;19.81;42.11;100145.47;10223695;28;20054;-60
2023/06/14 06:20:27;;;;;;;5.55;1.60;;;;;;;20.04;42.02;100153.81;10220397;28;20043;-62
2023/06/14 06:25:31;;;;;;;2.72;1.70;;;;;;;20.16;41.70;100163.63;10226425;28;20075;-61
2023/06/14 06:30:33;;;;;;;4.30;1.40;;;;;;;20.27;42.12;100153.72;10221614;28;20491;-59
2023/06/14 06:35:34;;;;;;;2.03;1.25;;;;;;;20.43;42.25;100159.47;10221549;28;20054;-61
2023/06/14 06:40:36;;;;;;;3.95;1.60;;;;;;;20.42;41.95;100169.56;10222608;28;20040;-58
2023/06/14 06:45:37;;;;;;;6.07;1.52;;;;;;;20.47;41.55;100166.91;10222970;28;20050;-66
2023/06/14 06:50:39;;;;;;;3.95;1.50;;;;;;;20.65;41.00;100173.25;10216306;28;20068;-67
2023/06/14 06:55:40;;;;;;;1.60;1.20;;;;;;;20.80;40.86;100165.31;10218868;28;20059;-67
2023/06/14 07:00:41;;;;;;;3.75;1.30;;;;;;;20.86;40.98;100161.59;10218892;28;20081;-66
2023/06/14 07:05:43;;;;;;;1.55;0.90;;;;;;;21.05;41.07;100172.25;10220065;28;20047;-68
2023/06/14 07:10:45;;;;;;;9.50;1.40;;;;;;;21.28;40.92;100177.53;10223426;28;20106;-69
2023/06/14 07:15:46;;;;;;;6.78;1.52;;;;;;;21.45;40.53;100171.25;10226137;28;20738;-67
2023/06/14 07:20:48;;;;;;;3.95;1.40;;;;;;;21.47;40.30;100178.09;10224883;28;20054;-68
2023/06/14 07:25:49;;;;;;;2.80;0.80;;;;;;;21.36;40.21;100181.72;10223074;28;20102;-64
2023/06/14 07:30:51;;;;;;;3.88;1.10;;;;;;;21.46;40.06;100183.81;10223154;28;20051;-67
2023/06/14 07:35:52;;;;;;;2.55;1.00;;;;;;;21.66;39.86;100173.13;10221177;28;20054;-66
2023/06/14 07:40:54;;;;;;;2.47;1.00;;;;;;;21.73;40.00;100178.44;10219892;28;20447;-67
2023/06/14 07:45:56;;;;;;;1.67;0.90;;;;;;;21.85;39.39;100176.41;10222165;28;20056;-67
2023/06/14 07:51:08;;;;;;;0.95;0.70;;;;;;;22.04;39.39;100171.44;10220123;28;20070;-66
2023/06/14 07:56:10;;;;;;;2.42;0.88;;;;;;;22.01;38.72;100174.66;10233170;28;20137;-67
2023/06/14 08:01:12;;;;;;;5.03;0.77;;;;;;;22.08;38.70;100178.03;10230013;28;20495;-69
2023/06/14 08:06:15;;;;;;;3.60;0.65;;;;;;;22.30;38.35;100175.28;10219662;28;20052;-65
2023/06/14 08:11:16;;;;;;;1.20;0.60;;;;;;;22.46;37.76;100189.16;10230870;28;20051;-66
2023/06/14 08:16:18;;;;;;;2.60;0.50;;;;;;;22.69;37.26;100177.88;10234899;28;20058;-66
2023/06/14 08:21:19;;;;;;;3.80;0.50;;;;;;;22.87;37.02;100184.03;10232183;28;20056;-64
2023/06/14 08:26:21;;;;;;;3.60;0.70;;;;;;;22.91;36.79;100176.94;10225596;28;20047;-66
2023/06/14 08:31:25;;;;;;;3.20;0.52;;;;;;;22.76;36.31;100172.97;10229935;28;20494;-67
2023/06/14 08:36:26;;;;;;;4.85;0.73;;;;;;;22.97;36.00;100176.72;10227966;28;20088;-68
2023/06/14 08:41:29;;;;;;;6.45;0.50;;;;;;;23.03;35.58;100174.06;10228029;28;20050;-64
2023/06/14 08:46:33;;;;;;;1.00;0.63;;;;;;;22.98;35.83;100180.28;10230951;28;20078;-66
2023/06/14 08:51:36;;;;;;;0.90;0.40;;;;;;;22.88;35.48;100172.78;10222081;28;20052;-70
2023/06/14 08:56:41;;;;;;;1.65;0.40;;;;;;;23.13;35.12;100169.44;10229126;28;20054;-67
2023/06/14 09:01:43;;;;;;;0.80;0.57;;;;;;;23.07;34.92;100170.50;10227915;28;20054;-63
2023/06/14 09:07:06;;;;;;;0.93;0.43;;;;;;;23.20;34.75;100177.44;10213553;28;20491;-67
2023/06/14 09:12:10;;;;;;;3.55;0.40;;;;;;;23.33;34.86;100178.91;10197343;28;20043;-61
2023/06/14 09:17:13;;;;;;;2.63;0.43;;;;;;;23.44;34.50;100186.13;10226591;28;20047;-65
2023/06/14 09:22:16;;;;;;;2.58;0.50;;;;;;;23.49;34.46;100186.13;10164423;29;21003;-63
2023/06/14 09:27:17;;;;;;;0.88;0.40;;;;;;;23.58;34.40;100197.44;10226611;28;20043;-66
2023/06/14 09:32:21;;;;;;;2.03;0.57;;;;;;;23.98;33.86;100192.44;10205284;28;20055;-65
2023/06/14 09:37:32;;;;;;;0.90;0.50;;;;;;;24.15;33.79;100187.53;10210708;28;20069;-67
2023/06/14 09:42:35;;;;;;;2.60;0.75;;;;;;;23.86;33.81;100207.19;10221130;28;20107;-65
2023/06/14 09:47:38;;;;;;;0.77;0.60;;;;;;;23.77;33.82;100197.78;10195094;28;20526;-67
2023/06/14 09:52:44;;;;;;;3.10;0.50;;;;;;;24.06;33.48;100200.97;10226166;28;20143;-64
2023/06/14 09:57:48;;;;;;;2.20;0.50;;;;;;;24.33;33.26;100205.44;10179704;29;20062;-66
2023/06/14 10:02:56;;;;;;;1.63;0.80;;;;;;;24.43;33.04;100205.47;10205968;29;20048;-67
2023/06/14 10:08:06;;;;;;;2.75;0.85;;;;;;;24.59;32.98;100206.34;10186341;29;20056;-61
2023/06/14 10:13:08;;;;;;;3.95;1.50;;;;;;;24.63;32.38;100198.38;10221890;28;20055;-68
2023/06/14 10:18:30;;;;;;;1.45;0.60;;;;;;;24.73;32.27;100196.44;10223765;28;20047;-67
2023/06/14 10:23:37;;;;;;;2.75;0.70;;;;;;;24.98;32.28;100196.72;10212249;28;20040;-68
2023/06/14 10:28:38;;;;;;;2.33;0.68;;;;;;;25.17;31.79;100188.75;10220653;28;20426;-66
2023/06/14 10:33:50;;;;;;;1.77;1.23;;;;;;;25.23;31.53;100184.91;10225158;28;20047;-65
2023/06/14 10:38:59;;;;;;;4.50;0.75;;;;;;;25.23;31.51;100185.72;10227046;28;20044;-67
2023/06/14 10:44:13;;;;;;;2.60;0.50;;;;;;;25.41;31.16;100178.81;10223797;28;20055;-68
2023/06/14 10:49:21;;;;;;;1.77;1.00;;;;;;;25.48;30.97;100187.59;10223107;28;20098;-67
2023/06/14 10:54:23;;;;;;;1.42;0.60;;;;;;;25.72;30.96;100192.47;10221113;28;20047;-61
2023/06/14 10:59:24;;;;;;;0.80;0.50;;;;;;;26.29;30.49;100193.91;10225316;28;20058;-62
2023/06/14 11:04:53;;;;;;;1.05;0.90;;;;;;;26.73;29.30;100188.66;10223189;28;20050;-63
2023/06/14 11:10:31;;;;;;;0.60;0.50;;;;;;;27.02;29.56;100183.19;10213537;28;20049;-63
2023/06/14 11:15:34;;;;;;;0.98;0.43;;;;;;;27.44;28.80;100188.03;10222334;28;20051;-63
2023/06/14 11:20:36;;;;;;;1.52;0.50;;;;;;;27.60;28.80;100182.34;10220882;28;20048;-63
2023/06/14 11:25:38;;;;;;;0.98;0.60;;;;;;;27.98;28.05;100188.81;10214444;28;20056;-64
2023/06/14 11:30:39;;;;;;;2.60;0.50;;;;;;;28.07;27.82;100178.72;10216866;28;20043;-63
2023/06/14 11:35:41;;;;;;;1.70;0.52;;;;;;;27.89;28.10;100185.88;10225358;28;20043;-62
2023/06/14 11:40:42;;;;;;;0.45;0.40;;;;;;;28.28;27.53;100181.22;10220850;28;20537;-60
2023/06/14 11:45:48;;;;;;;4.45;0.50;;;;;;;28.58;26.95;100173.59;10221800;28;20058;-60
2023/06/14 11:51:07;;;;;;;0.50;0.30;;;;;;;28.84;26.36;100182.28;10215570;28;20054;-62
2023/06/14 11:56:09;;;;;;;2.10;0.50;;;;;;;29.01;25.90;100174.25;10227039;28;20044;-61
2023/06/14 12:01:17;;;;;;;2.35;0.50;;;;;;;29.26;25.04;100177.69;10217827;28;20046;-62
2023/06/14 12:06:32;;;;;;;0.60;0.40;;;;;;;29.54;24.96;100180.50;10211359;28;20050;-62
2023/06/14 12:11:35;;;;;;;;;;;;;;;29.77;25.90;100167.59;10217176;28;20051;-61
2023/06/14 12:16:39;;;;;;;4.90;0.60;;;;;;;30.05;24.66;100180.25;10214285;28;19930;-62
2023/06/14 12:21:42;;;;;;;3.78;1.20;;;;;;;30.28;24.01;100176.75;10219418;28;20052;-64
2023/06/14 12:26:43;;;;;;;5.32;1.27;;;;;;;30.29;24.32;100179.19;10219506;28;20062;-64
2023/06/14 12:31:45;;;;;;;0.95;0.50;;;;;;;30.61;23.40;100182.94;10219118;28;20043;-63
2023/06/14 12:36:46;;;;;;;1.10;0.60;;;;;;;30.65;23.01;100175.63;10218192;28;20451;-62
2023/06/14 12:41:48;;;;;;;4.20;0.60;;;;;;;30.55;22.88;100189.72;10225933;28;20047;-63
2023/06/14 12:46:51;;;;;;;1.17;0.60;;;;;;;30.53;22.62;100176.19;10223361;28;20052;-64
2023/06/14 12:51:52;;;;;;;1.95;0.43;;;;;;;30.54;23.07;100186.13;10225626;28;20150;-62
2023/06/14 12:56:54;;;;;;;0.50;0.50;;;;;;;30.71;22.26;100184.59;10221060;28;20059;-63
2023/06/14 13:01:56;;;;;;;1.08;0.70;;;;;;;30.58;23.18;100195.47;10224790;28;20563;-63
2023/06/14 13:06:57;;;;;;;0.65;0.50;;;;;;;30.58;23.17;100184.34;10221433;28;20051;-64
2023/06/14 13:11:59;;;;;;;3.58;0.50;;;;;;;30.50;22.13;100185.13;10224010;28;20048;-63
2023/06/14 13:17:00;;;;;;;1.40;0.50;;;;;;;30.46;22.84;100195.19;10230874;28;20046;-62
2023/06/14 13:22:02;;;;;;;0.60;0.40;;;;;;;30.60;22.35;100184.06;10226387;28;20066;-65
2023/06/14 13:27:05;;;;;;;2.92;0.50;;;;;;;30.24;23.49;100184.88;10223132;28;20059;-63
2023/06/14 13:32:07;;;;;;;6.40;1.08;;;;;;;29.91;24.07;100178.66;10225188;28;20446;-62
2023/06/14 13:37:09;;;;;;;2.97;0.50;;;;;;;30.40;23.16;100190.91;10224413;28;20126;-64
2023/06/14 13:42:11;;;;;;;1.25;0.45;;;;;;;31.11;22.64;100196.66;10220085;28;20538;-63
2023/06/14 13:47:12;;;;;;;0.95;0.60;;;;;;;33.28;20.90;100181.50;10224277;28;20126;-65
2023/06/14 13:52:14;;;;;;;2.28;0.60;;;;;;;34.69;19.85;100173.91;10227144;28;20039;-64
2023/06/14 13:57:16;;;;;;;4.45;1.40;;;;;;;35.39;19.12;100160.03;10219043;28;20084;-63
2023/06/14 14:02:18;;;;;;;2.58;0.55;;;;;;;36.09;18.50;100161.84;10220406;28;20394;-64
2023/06/14 14:07:20;;;;;;;1.23;0.50;;;;;;;36.40;18.13;100160.41;10209444;28;20851;-64
2023/06/14 14:12:21;;;;;;;5.15;0.60;;;;;;;35.29;19.33;100164.09;10223320;28;20416;-64
2023/06/14 14:17:23;;;;;;;0.80;0.60;;;;;;;34.15;19.37;100157.94;10225005;28;20058;-64
2023/06/14 14:22:25;;;;;;;5.63;0.50;;;;;;;33.76;20.15;100159.97;10221253;28;20055;-63
2023/06/14 14:27:28;;;;;;;1.30;0.50;;;;;;;33.56;20.20;100156.75;10208869;28;20039;-63
2023/06/14 14:32:30;;;;;;;1.27;0.52;;;;;;;33.38;19.71;100153.25;10227668;28;20046;-62
2023/06/14 14:37:31;;;;;;;2.20;0.57;;;;;;;34.34;19.38;100151.84;10216818;28;20059;-65
2023/06/14 14:42:32;;;;;;;2.78;0.70;;;;;;;34.84;18.63;100159.31;10217478;28;20042;-65
2023/06/14 14:47:34;;;;;;;1.02;0.60;;;;;;;34.22;18.89;100158.19;10216366;28;20051;-65
2023/06/14 14:52:36;;;;;;;0.70;0.50;;;;;;;33.08;20.16;100154.31;10219941;28;20043;-63
2023/06/14 14:57:37;;;;;;;0.85;0.40;;;;;;;32.32;20.44;100150.97;10214740;28;20131;-66
2023/06/14 15:02:39;;;;;;;1.33;0.50;;;;;;;32.63;20.15;100147.22;10216336;28;20039;-65
2023/06/14 15:07:40;;;;;;;2.03;0.35;;;;;;;33.47;19.80;100146.81;10218730;28;20062;-64
2023/06/14 15:12:42;;;;;;;1.13;0.43;;;;;;;34.02;19.77;100143.06;10223250;28;20059;-65
2023/06/14 15:17:43;;;;;;;2.50;0.70;;;;;;;33.17;20.15;100157.91;10219823;28;20143;-64
2023/06/14 15:22:45;;;;;;;4.60;0.57;;;;;;;32.17;21.08;100157.84;10221198;28;20039;-63
2023/06/14 15:27:49;;;;;;;0.88;0.50;;;;;;;32.46;20.90;100156.34;10214556;28;20047;-64
2023/06/14 15:32:50;;;;;;;1.73;0.60;;;;;;;33.17;20.34;100160.69;10219931;28;20047;-64
2023/06/14 15:37:52;;;;;;;1.23;0.50;;;;;;;33.37;19.86;100157.19;10216049;28;20557;-65
2023/06/14 15:42:53;;;;;;;1.60;0.50;;;;;;;33.73;19.60;100153.09;10220371;28;20063;-65
2023/06/14 15:47:56;;;;;;;3.83;0.50;;;;;;;34.14;19.10;100145.97;10218585;28;20044;-65
2023/06/14 15:52:57;;;;;;;2.50;0.52;;;;;;;34.25;18.65;100135.19;10218165;28;20576;-65
2023/06/14 15:57:59;;;;;;;1.42;0.60;;;;;;;34.34;18.32;100138.75;10221133;28;20051;-65
2023/06/14 16:03:00;;;;;;;1.60;0.60;;;;;;;34.49;18.74;100142.84;10223479;28;20051;-65
2023/06/14 16:08:02;;;;;;;1.15;0.57;;;;;;;34.90;18.22;100134.78;10220374;28;20051;-64
2023/06/14 16:13:03;;;;;;;2.90;0.45;;;;;;;35.03;18.67;100132.78;10223831;28;20048;-66
2023/06/14 16:18:05;;;;;;;0.98;0.60;;;;;;;34.93;18.97;100137.69;10224901;28;20047;-65
2023/06/14 16:23:06;;;;;;;4.22;0.70;;;;;;;35.14;18.95;100145.16;10220455;28;20477;-65
2023/06/14 16:28:08;;;;;;;0.52;0.40;;;;;;;35.40;18.54;100144.84;10228628;28;20398;-65
2023/06/14 16:33:09;;;;;;;1.42;0.43;;;;;;;34.61;18.93;100146.88;10227413;28;20055;-64
2023/06/14 16:38:10;;;;;;;1.83;0.80;;;;;;;34.56;18.85;100142.31;10210640;28;20446;-65
2023/06/14 16:43:14;;;;;;;2.92;0.88;;;;;;;34.04;19.40;100146.31;10229593;28;20071;-64
2023/06/14 16:48:16;;;;;;;2.20;0.57;;;;;;;33.87;19.52;100138.91;10221307;28;20054;-65
2023/06/14 16:53:17;;;;;;;2.90;0.80;;;;;;;34.03;18.99;100138.31;10220140;28;20039;-65
2023/06/14 16:58:19;;;;;;;1.90;0.47;;;;;;;33.98;18.67;100140.13;10224614;28;20044;-63
2023/06/14 17:03:20;;;;;;;2.65;1.20;;;;;;;34.18;18.61;100143.28;10224849;28;20507;-64
2023/06/14 17:08:22;;;;;;;0.50;0.50;;;;;;;34.18;18.51;100148.88;10207514;28;20039;-64
2023/06/14 17:13:23;;;;;;;0.70;0.63;;;;;;;34.14;19.13;100156.25;10212577;28;20058;-65
2023/06/14 17:18:25;;;;;;;2.28;0.60;;;;;;;34.06;19.10;100151.56;10222859;28;20828;-63
2023/06/14 17:23:26;;;;;;;3.47;0.73;;;;;;;34.22;19.01;100160.16;10218419;28;20039;-67
2023/06/14 17:28:28;;;;;;;6.45;1.30;;;;;;;34.19;18.57;100158.09;10229199;28;20126;-63
2023/06/14 17:33:29;;;;;;;1.63;0.60;;;;;;;34.31;18.60;100166.50;10221719;28;20496;-63
2023/06/14 17:38:31;;;;;;;0.88;0.70;;;;;;;34.41;18.96;100173.66;10219297;28;20047;-63
2023/06/14 17:43:33;;;;;;;1.73;0.50;;;;;;;33.84;18.85;100170.25;10222714;28;20039;-61
2023/06/14 17:48:34;;;;;;;2.38;0.90;;;;;;;33.68;19.12;100172.81;10224630;28;20048;-62
2023/06/14 17:53:36;;;;;;;4.10;0.60;;;;;;;33.78;19.09;100180.78;10221745;28;20050;-62
2023/06/14 17:58:37;;;;;;;1.80;0.60;;;;;;;33.59;19.58;100180.34;10223393;28;20054;-63
2023/06/14 18:03:39;;;;;;;1.02;0.60;;;;;;;33.59;19.34;100181.19;10219454;28;20566;-63
2023/06/14 18:08:43;;;;;;;2.20;0.70;;;;;;;33.62;19.52;100190.03;10223286;28;20061;-63
2023/06/14 18:13:44;;;;;;;1.70;0.70;;;;;;;33.17;19.49;100197.72;10221919;28;20051;-64
2023/06/14 18:18:46;;;;;;;1.52;0.80;;;;;;;32.45;19.94;100201.22;10223737;28;20043;-63
2023/06/14 18:23:52;;;;;;;3.95;0.60;;;;;;;31.58;20.77;100197.09;10226375;28;20138;-62
2023/06/14 18:28:54;;;;;;;2.00;1.10;;;;;;;30.81;21.31;100212.94;10218803;28;20110;-63
2023/06/14 18:33:56;;;;;;;2.58;0.80;;;;;;;29.85;22.33;100205.66;10213683;28;20122;-64
2023/06/14 18:38:58;;;;;;;7.30;0.82;;;;;;;29.30;23.64;100214.72;10220715;28;20047;-65
2023/06/14 18:43:59;;;;;;;1.00;0.70;;;;;;;28.70;24.02;100217.41;10223038;28;20049;-61
2023/06/14 18:49:01;;;;;;;1.38;0.70;;;;;;;28.13;25.00;100225.66;10221823;28;20052;-63
2023/06/14 18:54:02;;;;;;;1.15;0.80;;;;;;;27.59;25.41;100233.16;10223301;28;20055;-64
2023/06/14 18:59:04;;;;;;;1.60;0.77;;;;;;;27.08;26.21;100235.28;10221264;28;20147;-64
2023/06/14 19:04:05;;;;;;;7.43;3.67;;;;;;;26.64;27.18;100243.59;10219639;28;20055;-64
2023/06/14 19:09:07;;;;;;;4.25;2.55;;;;;;;26.29;27.58;100243.50;10208743;28;20134;-63
2023/06/14 19:14:08;;;;;;;2.85;0.90;;;;;;;25.96;28.25;100246.97;10218985;28;20061;-63
2023/06/14 19:19:10;;;;;;;1.80;1.30;;;;;;;25.65;28.84;100242.34;10209021;28;20065;-65
2023/06/14 19:24:15;;;;;;;2.75;1.10;;;;;;;25.43;29.27;100250.91;10212292;28;20047;-62
2023/06/14 19:29:16;;;;;;;1.17;0.93;;;;;;;25.12;29.93;100256.41;10216781;28;20495;-63
2023/06/14 19:34:18;;;;;;;0.90;0.70;;;;;;;24.79;30.21;100271.53;10206840;28;20086;-63
2023/06/14 19:39:20;;;;;;;2.97;1.20;;;;;;;24.45;30.61;100277.47;10216608;28;20106;-61
2023/06/14 19:44:21;;;;;;;2.97;0.80;;;;;;;24.17;31.00;100288.88;10212277;28;20043;-64
2023/06/14 19:49:23;;;;;;;2.38;1.15;;;;;;;23.85;31.83;100303.56;10225178;28;20043;-63
2023/06/14 19:54:24;;;;;;;5.35;0.80;;;;;;;23.66;32.25;100303.97;10228525;28;20134;-64
2023/06/14 19:59:26;;;;;;;1.00;0.70;;;;;;;23.48;32.60;100316.19;10222522;28;20043;-63
2023/06/14 20:04:27;;;;;;;1.63;0.80;;;;;;;23.31;33.14;100323.72;10226600;28;20141;-63
2023/06/14 20:09:31;;;;;;;2.15;1.15;;;;;;;23.12;33.44;100326.03;10230995;28;20796;-63
2023/06/14 20:14:33;;;;;;;4.10;0.98;;;;;;;22.93;33.72;100331.03;10226546;28;20043;-62
2023/06/14 20:19:34;;;;;;;1.63;1.00;;;;;;;22.78;33.86;100329.75;10228787;28;20140;-63
2023/06/14 20:24:37;;;;;;;4.78;0.95;;;;;;;22.66;34.44;100340.03;10225227;28;20044;-63
2023/06/14 20:29:38;;;;;;;4.80;1.00;;;;;;;22.54;34.29;100339.38;10225901;28;20131;-62
2023/06/14 20:34:40;;;;;;;1.35;1.10;;;;;;;22.42;34.69;100336.75;10257622;28;20059;-64
2023/06/14 20:39:41;;;;;;;2.28;0.98;;;;;;;22.28;34.41;100335.50;10267093;28;20035;-62
2023/06/14 20:44:43;;;;;;;0.98;0.85;;;;;;;22.17;34.94;100343.50;10269507;28;20062;-62
2023/06/14 20:49:45;;;;;;;1.60;0.95;;;;;;;22.08;35.16;100338.75;10266791;28;20107;-63
2023/06/14 20:54:47;;;;;;;2.97;1.10;;;;;;;21.93;35.18;100331.13;10253901;28;20059;-65
2023/06/14 20:59:49;;;;;;;2.22;0.88;;;;;;;21.81;35.43;100338.63;10258025;28;20510;-65
2023/06/14 21:04:50;;;;;;;1.13;0.70;;;;;;;21.73;35.83;100342.63;10270303;28;20404;-63
2023/06/14 21:09:52;;;;;;;2.65;1.33;;;;;;;21.67;35.58;100344.44;10270237;28;20067;-63
2023/06/14 21:14:53;;;;;;;0.77;0.70;;;;;;;21.51;35.97;100342.53;10270904;28;20117;-63
2023/06/14 21:19:55;;;;;;;1.15;0.70;;;;;;;21.40;36.47;100346.97;10273343;28;20153;-64
2023/06/14 21:24:59;;;;;;;3.00;1.13;;;;;;;21.33;36.83;100344.41;10265706;28;20645;-63
2023/06/14 21:30:00;;;;;;;1.40;0.70;;;;;;;21.27;37.08;100350.88;10267876;28;20090;-62
2023/06/14 21:35:05;;;;;;;2.53;0.60;;;;;;;21.20;36.81;100358.38;10263640;28;20079;-63
2023/06/14 21:40:07;;;;;;;2.78;0.73;;;;;;;21.10;37.48;100355.47;10249217;28;20051;-64
2023/06/14 21:45:10;;;;;;;0.60;0.60;;;;;;;21.01;37.76;100349.59;10257252;28;20152;-65
2023/06/14 21:50:12;;;;;;;1.17;0.80;;;;;;;20.93;37.95;100359.00;10253773;28;20055;-64
2023/06/14 21:55:13;;;;;;;1.58;0.60;;;;;;;20.84;38.02;100362.38;10253257;28;20047;-63
2023/06/14 22:00:15;;;;;;;1.15;0.70;;;;;;;20.76;38.46;100364.41;10262898;28;20079;-64
2023/06/14 22:05:17;;;;;;;1.48;0.60;;;;;;;20.67;38.85;100360.41;10256013;28;20674;-64
2023/06/14 22:10:19;;;;;;;1.88;0.80;;;;;;;20.66;39.21;100371.59;10260375;28;20032;-63
2023/06/14 22:15:21;;;;;;;1.08;0.90;;;;;;;20.68;39.08;100364.81;10260581;28;20047;-65
2023/06/14 22:20:23;;;;;;;2.40;0.80;;;;;;;20.68;39.53;100366.72;10256399;28;20063;-62
2023/06/14 22:25:25;;;;;;;0.80;0.80;;;;;;;20.59;39.81;100371.72;10255231;28;20043;-62
2023/06/14 22:30:27;;;;;;;1.20;0.70;;;;;;;20.56;40.12;100378.47;10254471;28;20048;-64
2023/06/14 22:35:29;;;;;;;3.80;0.73;;;;;;;20.50;40.52;100375.88;10249054;28;20059;-63
2023/06/14 22:40:31;;;;;;;1.27;0.82;;;;;;;20.40;40.91;100366.38;10254362;28;20047;-64
2023/06/14 22:45:32;;;;;;;4.40;0.88;;;;;;;20.30;41.03;100374.38;10250258;28;20047;-63
2023/06/14 22:50:33;;;;;;;2.35;0.70;;;;;;;20.18;41.46;100376.25;10256349;28;20071;-63
2023/06/14 22:55:35;;;;;;;1.88;0.82;;;;;;;20.07;41.83;100377.94;10258284;28;20507;-63
2023/06/14 23:00:39;;;;;;;1.45;0.90;;;;;;;19.94;42.55;100378.19;10251404;28;20043;-62
2023/06/14 23:05:41;;;;;;;1.05;0.95;;;;;;;19.83;42.89;100376.28;10255344;28;20035;-63
2023/06/14 23:10:43;;;;;;;4.57;1.42;;;;;;;19.73;42.93;100372.25;10261576;28;20474;-61
2023/06/14 23:15:44;;;;;;;2.28;1.20;;;;;;;19.64;43.12;100370.91;10257334;28;20047;-63